Time;durP1;ratioP1;P1;durP2;ratioP2;P2;SDS_P1;SDS_P2;PMS_P1;PMS_P2;Temp;Humidity;BMP_temperature;BMP_pressure;BME280_temperature;BME280_humidity;BME280_pressure;Samples;Min_cycle;Max_cycle;Signal;HPM_P1;HPM_P2
2023/11/18 00:02:08;;;;;;;1.58;1.00;;;;;;;5.33;80.36;94059.88;5070222;28;20035;-73
2023/11/18 00:04:34;;;;;;;1.50;1.00;;;;;;;5.27;80.47;94068.88;5071452;28;20522;-73
2023/11/18 00:07:00;;;;;;;1.10;0.80;;;;;;;5.28;80.16;94069.69;5071527;28;20029;-73
2023/11/18 00:09:25;;;;;;;1.13;0.80;;;;;;;5.07;79.51;94056.63;5071405;28;20040;-73
2023/11/18 00:11:50;;;;;;;1.13;0.82;;;;;;;5.33;79.44;94059.88;5070009;28;20414;-73
2023/11/18 00:14:17;;;;;;;1.20;0.80;;;;;;;4.96;79.94;94044.56;5103995;28;20032;-73
2023/11/18 00:16:43;;;;;;;1.25;0.70;;;;;;;5.23;79.01;94072.59;5101700;28;20440;-73
2023/11/18 00:19:09;;;;;;;1.50;1.00;;;;;;;5.12;80.40;94088.84;5069978;28;20029;-73
2023/11/18 00:21:36;;;;;;;1.33;0.80;;;;;;;5.24;79.14;94101.78;5086752;28;20379;-73
2023/11/18 00:24:01;;;;;;;1.83;1.05;;;;;;;5.02;78.39;94093.03;5069633;28;20127;-73
2023/11/18 00:26:26;;;;;;;1.42;0.80;;;;;;;5.06;79.89;94103.91;5086119;28;20112;-73
2023/11/18 00:28:52;;;;;;;1.10;0.70;;;;;;;4.92;78.16;94080.00;5086730;28;20058;-73
2023/11/18 00:31:17;;;;;;;1.40;0.80;;;;;;;4.91;78.91;94068.06;5071015;28;20040;-73
2023/11/18 00:33:43;;;;;;;1.25;0.90;;;;;;;5.01;79.49;94059.66;5051759;28;20027;-73
2023/11/18 00:36:08;;;;;;;1.60;0.90;;;;;;;5.07;79.53;94075.50;5071075;28;20047;-73
2023/11/18 00:38:34;;;;;;;1.30;0.90;;;;;;;5.01;80.01;94054.50;5071389;28;20565;-73
2023/11/18 00:41:00;;;;;;;1.95;0.90;;;;;;;4.82;78.20;94055.03;5071296;28;20044;-73
2023/11/18 00:43:25;;;;;;;1.70;0.90;;;;;;;4.82;78.87;94043.00;5101792;28;20035;-73
2023/11/18 00:45:51;;;;;;;1.35;0.80;;;;;;;4.83;78.46;94052.34;5069669;28;20479;-73
2023/11/18 00:48:17;;;;;;;1.42;1.00;;;;;;;4.74;78.90;94045.31;5103488;28;20107;-73
2023/11/18 00:50:42;;;;;;;0.93;0.70;;;;;;;4.82;79.31;94062.75;5086400;28;20033;-73
2023/11/18 00:53:07;;;;;;;1.30;0.80;;;;;;;4.75;78.55;94062.38;5084917;28;20037;-73
2023/11/18 00:55:33;;;;;;;1.10;0.80;;;;;;;4.71;77.57;94066.13;5052750;28;20028;-72
2023/11/18 00:57:59;;;;;;;1.40;0.90;;;;;;;4.65;78.02;94057.09;5103173;28;20439;-73
2023/11/18 01:00:26;;;;;;;0.93;0.70;;;;;;;4.76;78.32;94065.78;5069408;28;20036;-73
2023/11/18 01:02:53;;;;;;;1.58;0.90;;;;;;;4.57;78.67;94068.81;5069604;28;20203;-73
2023/11/18 01:05:19;;;;;;;1.00;0.75;;;;;;;4.54;78.60;94061.31;5103176;28;20502;-73
2023/11/18 01:07:44;;;;;;;1.23;0.82;;;;;;;4.62;78.25;94079.63;5089312;28;20035;-73
2023/11/18 01:10:10;;;;;;;1.38;0.90;;;;;;;4.47;78.38;94060.94;5061097;28;20025;-73
2023/11/18 01:12:35;;;;;;;1.33;0.90;;;;;;;4.56;78.37;94082.63;5069388;28;20469;-73
2023/11/18 01:15:02;;;;;;;1.98;1.10;;;;;;;4.59;77.93;94085.78;5069132;28;20032;-73
2023/11/18 01:17:29;;;;;;;1.40;1.00;;;;;;;4.42;77.85;94081.84;5052956;28;20043;-73
2023/11/18 01:19:54;;;;;;;1.23;0.85;;;;;;;4.38;77.97;94095.88;5101443;28;20068;-73
2023/11/18 01:22:21;;;;;;;1.88;1.10;;;;;;;4.41;77.91;94095.66;5102848;28;20039;-73
2023/11/18 01:24:46;;;;;;;1.55;0.93;;;;;;;4.32;78.32;94080.88;5069350;28;20497;-73
2023/11/18 01:27:12;;;;;;;1.45;1.08;;;;;;;4.46;77.31;94091.00;5067592;28;20086;-73
2023/11/18 01:29:39;;;;;;;1.52;1.10;;;;;;;4.46;77.95;94082.47;5086029;28;20052;-72
2023/11/18 01:32:09;;;;;;;1.80;1.10;;;;;;;4.22;78.45;94059.28;5069223;28;20048;-72
2023/11/18 01:34:35;;;;;;;1.77;1.17;;;;;;;4.30;79.62;94072.44;5070437;28;20510;-72
2023/11/18 01:37:01;;;;;;;1.50;1.10;;;;;;;4.37;78.37;94089.06;5085682;28;20494;-72
2023/11/18 01:39:27;;;;;;;1.58;1.08;;;;;;;4.32;79.19;94090.31;5074307;28;20085;-72
2023/11/18 01:41:52;;;;;;;2.30;1.35;;;;;;;4.40;79.08;94088.88;5089807;28;20043;-72
2023/11/18 01:44:19;;;;;;;1.75;1.25;;;;;;;4.42;79.04;94086.16;5056130;28;20037;-72
2023/11/18 01:46:45;;;;;;;2.10;1.30;;;;;;;4.32;78.43;94080.03;5071458;28;20040;-72
2023/11/18 01:49:13;;;;;;;2.00;1.30;;;;;;;4.21;78.98;94078.22;5089865;28;20024;-72
2023/11/18 01:51:43;;;;;;;1.70;1.27;;;;;;;4.30;78.70;94077.56;5089167;28;20036;-72
2023/11/18 01:54:09;;;;;;;2.30;1.38;;;;;;;4.24;78.70;94099.41;5072203;28;20052;-72
2023/11/18 01:56:34;;;;;;;2.95;1.25;;;;;;;4.12;79.34;94087.38;5087946;28;20521;-72
2023/11/18 01:58:59;;;;;;;1.65;1.05;;;;;;;4.15;78.25;94083.75;5073964;28;20033;-72
2023/11/18 02:01:26;;;;;;;3.78;1.30;;;;;;;4.13;78.33;94065.06;5072339;28;20074;-72
2023/11/18 02:03:52;;;;;;;1.63;1.20;;;;;;;4.18;78.56;94075.84;5071243;28;20107;-72
2023/11/18 02:06:17;;;;;;;1.90;1.40;;;;;;;4.16;78.68;94077.72;5089074;28;20039;-72
2023/11/18 02:08:43;;;;;;;1.85;1.40;;;;;;;4.12;78.99;94087.38;5105405;28;20032;-72
2023/11/18 02:11:21;;;;;;;2.05;1.45;;;;;;;4.13;79.03;94095.94;5084954;28;20045;-72
2023/11/18 02:13:48;;;;;;;2.10;1.30;;;;;;;3.99;78.20;94084.84;5076260;28;20479;-72
2023/11/18 02:16:14;;;;;;;2.00;1.50;;;;;;;3.86;77.71;94078.88;5075013;28;20032;-72
2023/11/18 02:18:40;;;;;;;1.70;1.30;;;;;;;3.79;78.01;94086.19;5075764;28;20106;-72
2023/11/18 02:21:08;;;;;;;1.98;1.52;;;;;;;3.89;78.13;94083.81;5092582;28;20024;-72
2023/11/18 02:23:33;;;;;;;2.30;1.70;;;;;;;3.83;79.72;94103.97;5057078;28;20033;-72
2023/11/18 02:26:01;;;;;;;2.20;1.70;;;;;;;3.84;78.81;94095.34;5072474;28;20032;-72
2023/11/18 02:28:27;;;;;;;2.05;1.70;;;;;;;3.71;77.86;94069.66;5071893;28;20037;-72
2023/11/18 02:30:56;;;;;;;2.15;1.70;;;;;;;3.77;78.39;94076.94;5053872;28;20032;-72
2023/11/18 02:33:23;;;;;;;1.98;1.35;;;;;;;3.76;76.35;94095.84;5084766;28;20091;-72
2023/11/18 02:35:52;;;;;;;2.15;1.63;;;;;;;3.76;76.77;94080.44;5052102;28;20211;-72
2023/11/18 02:38:25;;;;;;;2.00;1.60;;;;;;;3.81;78.03;94096.34;5046049;28;20040;-72
2023/11/18 02:40:53;;;;;;;2.10;1.60;;;;;;;3.71;75.64;94080.75;5087245;28;20031;-73
2023/11/18 02:43:18;;;;;;;2.20;1.77;;;;;;;3.77;76.09;94089.78;5088549;28;20048;-72
2023/11/18 02:45:44;;;;;;;2.72;2.28;;;;;;;3.65;77.01;94064.91;5088561;28;20032;-72
2023/11/18 02:48:10;;;;;;;2.35;1.95;;;;;;;3.65;75.81;94080.34;5088196;28;20033;-72
2023/11/18 02:50:35;;;;;;;2.85;1.90;;;;;;;3.58;75.71;94083.31;5086532;28;20028;-72
2023/11/18 02:53:02;;;;;;;1.75;1.38;;;;;;;3.65;73.87;94093.19;5102488;28;20044;-72
2023/11/18 02:55:27;;;;;;;1.83;1.45;;;;;;;3.41;75.68;94078.50;5053813;28;20060;-72
2023/11/18 02:57:53;;;;;;;3.33;2.00;;;;;;;3.42;76.32;94108.38;5068672;28;20474;-71
2023/11/18 03:00:21;;;;;;;2.65;2.00;;;;;;;3.38;73.98;94093.28;5071797;28;20031;-71
2023/11/18 03:02:47;;;;;;;2.08;1.60;;;;;;;3.42;74.01;94115.25;5077210;28;20039;-72
2023/11/18 03:05:14;;;;;;;2.33;1.83;;;;;;;3.41;74.35;94129.84;5054563;28;20031;-72
2023/11/18 03:07:49;;;;;;;2.28;1.83;;;;;;;3.40;73.84;94124.78;5069495;28;20505;-75
2023/11/18 03:10:20;;;;;;;2.60;2.00;;;;;;;3.31;74.15;94103.13;5054571;28;20096;-74
2023/11/18 03:12:49;;;;;;;3.13;2.20;;;;;;;3.32;73.91;94121.00;5069921;28;20524;-72
2023/11/18 03:15:18;;;;;;;2.58;1.92;;;;;;;3.26;73.87;94112.88;5070587;28;20111;-72
2023/11/18 03:17:45;;;;;;;2.78;2.08;;;;;;;3.44;74.22;94134.78;5075093;28;20033;-72
2023/11/18 03:20:14;;;;;;;2.35;1.95;;;;;;;3.32;73.48;94138.16;5071163;28;20402;-72
2023/11/18 03:22:39;;;;;;;2.78;2.05;;;;;;;3.31;73.30;94145.00;5070927;28;20434;-73
2023/11/18 03:25:07;;;;;;;2.33;2.00;;;;;;;3.40;73.43;94159.03;5068943;28;20032;-73
2023/11/18 03:27:33;;;;;;;2.90;2.17;;;;;;;3.23;73.85;94155.00;5072100;28;20032;-73
2023/11/18 03:29:58;;;;;;;2.70;1.83;;;;;;;3.31;73.28;94151.91;5072084;28;20031;-73
2023/11/18 03:32:24;;;;;;;3.50;2.33;;;;;;;3.06;72.18;94155.22;5071176;28;20098;-72
2023/11/18 03:34:49;;;;;;;3.72;2.78;;;;;;;3.28;72.88;94152.91;5069120;28;20056;-73
2023/11/18 03:37:14;;;;;;;2.75;2.30;;;;;;;3.20;72.72;94162.03;5071517;28;20081;-72
2023/11/18 03:39:40;;;;;;;2.67;2.22;;;;;;;3.19;72.41;94152.72;5070033;28;20063;-72
2023/11/18 03:42:05;;;;;;;4.57;2.08;;;;;;;3.09;72.28;94158.44;5072873;28;20478;-72
2023/11/18 03:44:31;;;;;;;3.40;2.17;;;;;;;3.02;72.30;94152.03;5070720;28;20048;-73
2023/11/18 03:46:56;;;;;;;3.60;2.40;;;;;;;3.05;72.72;94164.66;5079934;28;20062;-72
2023/11/18 03:49:22;;;;;;;3.05;2.20;;;;;;;3.06;72.44;94153.47;5071809;28;20021;-72
2023/11/18 03:51:47;;;;;;;2.80;2.40;;;;;;;2.96;72.64;94159.31;5071676;28;20051;-71
2023/11/18 03:54:13;;;;;;;3.13;2.20;;;;;;;2.97;71.59;94148.94;5069724;28;20051;-72
2023/11/18 03:56:39;;;;;;;3.05;2.30;;;;;;;3.05;71.97;94154.41;5103689;28;20060;-72
2023/11/18 03:59:04;;;;;;;2.90;2.25;;;;;;;2.95;72.60;94142.25;5103596;28;20528;-72
2023/11/18 04:01:30;;;;;;;2.97;2.30;;;;;;;2.84;71.82;94155.75;5101153;28;21665;-72
2023/11/18 04:03:55;;;;;;;2.83;2.33;;;;;;;2.87;72.38;94135.03;5102347;28;20040;-72
2023/11/18 04:06:24;;;;;;;3.17;2.55;;;;;;;2.82;72.23;94139.66;5051873;28;20120;-72
2023/11/18 04:08:50;;;;;;;3.22;2.50;;;;;;;2.69;72.54;94166.06;5068561;28;20094;-72
2023/11/18 04:11:15;;;;;;;3.35;2.60;;;;;;;2.52;71.15;94127.81;5052509;28;20449;-71
2023/11/18 04:13:44;;;;;;;3.17;2.38;;;;;;;2.54;72.04;94150.81;5070929;28;20037;-72
2023/11/18 04:16:12;;;;;;;3.30;2.47;;;;;;;2.44;71.34;94161.63;5053564;28;20024;-71
2023/11/18 04:18:44;;;;;;;3.15;2.65;;;;;;;2.40;72.97;94179.88;5069696;28;20094;-71
2023/11/18 04:21:09;;;;;;;;;;;;;;;2.38;71.10;94189.38;5070376;28;20025;-71
2023/11/18 04:23:41;;;;;;;2.92;2.38;;;;;;;2.33;71.09;94194.78;5069459;28;19922;-71
2023/11/18 04:26:07;;;;;;;3.33;2.42;;;;;;;2.28;71.85;94183.97;5069521;28;20031;-71
2023/11/18 04:28:33;;;;;;;3.28;2.50;;;;;;;2.26;71.38;94187.56;5069373;28;20024;-71
2023/11/18 04:30:59;;;;;;;3.50;2.88;;;;;;;2.28;71.84;94199.34;5052983;28;20055;-72
2023/11/18 04:33:25;;;;;;;4.05;3.63;;;;;;;2.32;71.99;94203.41;5086449;28;20044;-71
2023/11/18 04:35:51;;;;;;;3.80;2.70;;;;;;;2.20;72.69;94206.69;5052507;28;20052;-72
2023/11/18 04:38:17;;;;;;;3.45;2.90;;;;;;;2.26;71.63;94221.72;5052419;28;20032;-72
2023/11/18 04:40:44;;;;;;;3.97;2.83;;;;;;;2.31;71.02;94206.88;5053019;28;20497;-71
2023/11/18 04:43:10;;;;;;;4.40;3.28;;;;;;;2.39;71.11;94226.91;5069313;28;20033;-71
2023/11/18 04:45:36;;;;;;;2.92;2.53;;;;;;;2.41;70.39;94228.47;5070285;28;20557;-71
2023/11/18 04:48:02;;;;;;;3.58;2.97;;;;;;;2.39;70.89;94214.09;5069491;28;20120;-71
2023/11/18 04:50:28;;;;;;;4.25;2.70;;;;;;;2.38;70.34;94199.66;5052422;28;20024;-71
2023/11/18 04:52:54;;;;;;;4.00;2.70;;;;;;;2.34;70.88;94187.91;5069380;28;20032;-72
2023/11/18 04:55:20;;;;;;;2.97;2.55;;;;;;;2.33;70.46;94183.72;5052253;28;20048;-72
2023/11/18 04:57:45;;;;;;;2.60;2.00;;;;;;;2.33;69.68;94209.34;5068729;28;20028;-72
2023/11/18 05:00:11;;;;;;;2.88;2.17;;;;;;;2.32;69.67;94200.03;5052927;28;20032;-72
2023/11/18 05:02:40;;;;;;;3.28;2.53;;;;;;;2.24;69.55;94182.53;5048507;28;20434;-71
2023/11/18 05:05:06;;;;;;;3.60;2.92;;;;;;;2.24;69.72;94197.91;5052767;28;20024;-72
2023/11/18 05:07:32;;;;;;;3.00;2.28;;;;;;;2.28;69.66;94195.97;5070635;28;20483;-72
2023/11/18 05:09:57;;;;;;;3.22;2.33;;;;;;;2.16;69.56;94212.91;5068681;28;20039;-72
2023/11/18 05:12:23;;;;;;;3.53;2.05;;;;;;;2.18;69.83;94188.84;5072449;28;20032;-71
2023/11/18 05:14:49;;;;;;;2.60;2.08;;;;;;;2.06;69.94;94169.06;5074780;28;20031;-71
2023/11/18 05:17:18;;;;;;;2.88;2.13;;;;;;;2.06;69.49;94163.13;5056559;28;20033;-71
2023/11/18 05:19:43;;;;;;;2.90;2.30;;;;;;;2.15;69.81;94172.84;5073141;28;20178;-71
2023/11/18 05:22:09;;;;;;;3.08;2.10;;;;;;;2.10;69.89;94156.91;5039357;28;20544;-71
2023/11/18 05:24:34;;;;;;;3.45;2.03;;;;;;;2.18;69.96;94173.47;5106779;28;20039;-72
2023/11/18 05:27:02;;;;;;;2.45;1.85;;;;;;;2.13;68.91;94180.59;5056098;28;20036;-71
2023/11/18 05:29:28;;;;;;;4.72;2.08;;;;;;;2.06;68.62;94165.69;5072996;28;20062;-71
2023/11/18 05:31:57;;;;;;;2.30;1.60;;;;;;;2.13;68.56;94174.66;5070814;28;20029;-71
2023/11/18 05:34:22;;;;;;;2.90;2.10;;;;;;;2.12;69.08;94167.91;5072584;28;20043;-71
2023/11/18 05:36:48;;;;;;;2.88;2.20;;;;;;;2.18;69.43;94172.66;5046600;28;20490;-71
2023/11/18 05:39:14;;;;;;;1.70;1.30;;;;;;;2.13;68.58;94172.09;5069149;28;20037;-71
2023/11/18 05:41:45;;;;;;;3.25;1.77;;;;;;;2.03;68.76;94169.25;5071353;28;20566;-71
2023/11/18 05:44:17;;;;;;;2.92;2.03;;;;;;;2.05;68.33;94194.78;5056423;28;20038;-72
2023/11/18 05:46:46;;;;;;;2.72;2.05;;;;;;;2.06;68.85;94188.75;5086839;28;20406;-72
2023/11/18 05:49:13;;;;;;;2.72;2.00;;;;;;;2.11;69.04;94187.56;5073486;28;20068;-71
2023/11/18 05:51:40;;;;;;;2.20;1.60;;;;;;;2.13;68.12;94159.28;5069607;28;20033;-72
2023/11/18 05:54:06;;;;;;;2.28;1.63;;;;;;;2.11;68.52;94176.50;5053519;28;20083;-72
2023/11/18 05:56:32;;;;;;;2.75;1.50;;;;;;;2.06;67.79;94174.19;5083024;28;20108;-73
2023/11/18 05:58:57;;;;;;;2.30;1.60;;;;;;;2.05;68.57;94171.75;5053533;28;20213;-72
2023/11/18 06:01:23;;;;;;;2.38;1.75;;;;;;;2.07;68.26;94188.66;5084837;28;20406;-72
2023/11/18 06:03:48;;;;;;;3.85;1.55;;;;;;;2.10;67.24;94185.91;5068702;28;20043;-72
2023/11/18 06:06:16;;;;;;;2.90;1.75;;;;;;;2.13;67.47;94185.75;5068883;28;20062;-73
2023/11/18 06:08:41;;;;;;;2.20;1.63;;;;;;;2.11;67.82;94179.88;5053767;28;20041;-72
2023/11/18 06:11:14;;;;;;;2.78;1.65;;;;;;;2.29;67.84;94177.13;5071738;28;20035;-73
2023/11/18 06:13:42;;;;;;;6.03;3.15;;;;;;;2.32;67.76;94187.19;5084932;28;20035;-72
2023/11/18 06:16:20;;;;;;;5.10;2.50;;;;;;;2.36;67.70;94191.22;5070499;28;20036;-72
2023/11/18 06:18:46;;;;;;;9.43;6.00;;;;;;;2.28;67.36;94208.78;5065665;28;20024;-73
2023/11/18 06:21:15;;;;;;;2.70;1.70;;;;;;;2.15;67.84;94221.53;5051070;28;20033;-73
2023/11/18 06:23:41;;;;;;;2.00;1.30;;;;;;;2.31;67.72;94223.97;5060325;28;20033;-72
2023/11/18 06:26:09;;;;;;;1.98;1.30;;;;;;;2.24;67.29;94229.47;5068626;28;20036;-75
2023/11/18 06:28:36;;;;;;;2.50;1.60;;;;;;;2.21;68.02;94227.09;5054629;28;20090;-73
2023/11/18 06:31:01;;;;;;;4.45;1.60;;;;;;;2.24;67.96;94229.47;5076681;28;20546;-74
2023/11/18 06:33:27;;;;;;;4.38;2.80;;;;;;;2.20;68.17;94222.91;5056761;28;20041;-75
2023/11/18 06:35:54;;;;;;;1.55;1.00;;;;;;;2.09;69.07;94227.84;5069839;28;20467;-75
2023/11/18 06:38:20;;;;;;;2.50;2.00;;;;;;;2.04;67.91;94222.16;5054950;28;20028;-77
2023/11/18 06:40:46;;;;;;;1.90;1.20;;;;;;;2.15;68.88;94214.66;5070077;28;20016;-75
2023/11/18 06:43:11;;;;;;;2.28;1.60;;;;;;;1.98;68.17;94191.78;5068786;28;20494;-74
2023/11/18 06:45:43;;;;;;;2.15;1.10;;;;;;;2.09;66.92;94211.63;5099055;28;20089;-75
2023/11/18 06:48:08;;;;;;;;;;;;;;;2.19;67.61;94215.28;5054126;28;20409;-75
2023/11/18 06:50:36;;;;;;;2.42;1.60;;;;;;;2.08;68.03;94210.00;5071471;28;19917;-75
2023/11/18 06:53:01;;;;;;;2.50;1.60;;;;;;;2.29;67.92;94226.66;5068140;28;20036;-75
2023/11/18 06:55:27;;;;;;;2.67;1.67;;;;;;;2.16;68.31;94215.47;5071086;28;20078;-75
2023/11/18 06:57:54;;;;;;;2.17;1.35;;;;;;;2.13;68.67;94228.47;5069610;28;20040;-75
2023/11/18 07:00:21;;;;;;;2.15;1.38;;;;;;;2.18;68.24;94222.16;5054728;28;20029;-74
2023/11/18 07:02:47;;;;;;;3.03;2.03;;;;;;;2.22;66.89;94230.50;5054656;28;20055;-74
2023/11/18 07:05:14;;;;;;;2.35;1.35;;;;;;;2.29;67.01;94230.97;5068464;28;20433;-75
2023/11/18 07:07:40;;;;;;;4.13;2.70;;;;;;;2.32;66.32;94230.78;5070306;28;20084;-75
2023/11/18 07:10:06;;;;;;;2.35;1.50;;;;;;;2.36;66.58;94222.78;5070921;28;20502;-75
2023/11/18 07:12:37;;;;;;;4.32;2.17;;;;;;;2.18;65.96;94239.28;5054292;28;20047;-74
2023/11/18 07:15:04;;;;;;;4.10;2.95;;;;;;;2.26;65.64;94244.78;5069360;28;20029;-74
2023/11/18 07:17:29;;;;;;;2.30;1.60;;;;;;;2.27;66.05;94230.22;5053589;28;20421;-73
2023/11/18 07:19:55;;;;;;;4.13;1.60;;;;;;;2.18;65.89;94222.16;5071809;28;20028;-74
2023/11/18 07:22:21;;;;;;;1.85;1.23;;;;;;;2.34;66.37;94236.63;5069021;28;20037;-74
2023/11/18 07:24:46;;;;;;;1.70;1.13;;;;;;;2.42;66.10;94237.84;5069166;28;20037;-74
2023/11/18 07:27:13;;;;;;;2.70;1.70;;;;;;;2.42;65.60;94237.84;5069464;28;20032;-74
2023/11/18 07:29:38;;;;;;;1.88;1.25;;;;;;;2.45;66.04;94237.66;5053549;28;20059;-74
2023/11/18 07:32:05;;;;;;;1.90;1.05;;;;;;;2.57;65.62;94245.50;5051933;28;20498;-74
2023/11/18 07:34:32;;;;;;;2.17;1.10;;;;;;;2.29;65.88;94213.03;5070155;28;20447;-75
2023/11/18 07:37:01;;;;;;;2.10;1.42;;;;;;;2.52;65.99;94235.53;5069326;28;20119;-75
2023/11/18 07:39:43;;;;;;;3.33;1.80;;;;;;;2.43;66.17;94236.09;5068760;28;20063;-75
2023/11/18 07:42:11;;;;;;;3.53;1.35;;;;;;;2.38;67.11;94246.59;5070553;28;20029;-74
2023/11/18 07:44:38;;;;;;;5.10;2.30;;;;;;;2.50;66.51;94257.84;5085200;28;20040;-74
2023/11/18 07:47:05;;;;;;;4.78;2.90;;;;;;;2.43;66.24;94248.91;5067998;28;20040;-77
2023/11/18 07:49:31;;;;;;;7.30;3.30;;;;;;;2.31;66.86;94240.19;5051453;28;20020;-77
2023/11/18 07:51:57;;;;;;;2.58;1.55;;;;;;;2.37;65.87;94244.16;5048617;28;20032;-80
2023/11/18 07:54:23;;;;;;;4.32;2.50;;;;;;;2.41;66.81;94237.91;5068231;28;20055;-76
2023/11/18 07:56:49;;;;;;;5.20;3.63;;;;;;;2.43;66.79;94229.22;5034280;28;20476;-74
2023/11/18 07:59:15;;;;;;;6.50;4.90;;;;;;;2.50;66.44;94244.22;5052923;28;20047;-80
2023/11/18 08:01:46;;;;;;;9.90;6.28;;;;;;;2.57;66.59;94225.00;5065026;28;20428;-74
2023/11/18 08:04:14;;;;;;;2.88;2.00;;;;;;;2.55;66.96;94229.38;5069551;28;20032;-75
2023/11/18 08:06:40;;;;;;;4.20;2.40;;;;;;;2.50;66.78;94241.66;5069389;28;20041;-75
2023/11/18 08:09:13;;;;;;;11.02;7.50;;;;;;;2.49;66.43;94261.34;5051003;28;20524;-73
2023/11/18 08:11:41;;;;;;;15.73;7.75;;;;;;;2.38;66.14;94253.47;5069356;28;20036;-72
2023/11/18 08:14:10;;;;;;;5.22;2.67;;;;;;;2.38;65.80;94261.16;5050281;28;20028;-73
2023/11/18 08:16:35;;;;;;;18.63;11.50;;;;;;;2.49;66.44;94263.91;5068687;28;20091;-74
2023/11/18 08:19:07;;;;;;;6.78;4.22;;;;;;;2.35;65.72;94257.03;5066223;28;20411;-71
2023/11/18 08:21:33;;;;;;;7.38;4.97;;;;;;;2.28;66.55;94237.00;5069663;28;20037;-72
2023/11/18 08:24:00;;;;;;;8.20;4.70;;;;;;;2.42;65.91;94242.13;5069347;28;20077;-72
2023/11/18 08:26:25;;;;;;;6.22;4.82;;;;;;;2.44;67.13;94235.16;5050108;28;20028;-73
2023/11/18 08:28:51;;;;;;;5.13;3.67;;;;;;;2.32;65.78;94246.97;5096583;28;20414;-72
2023/11/18 08:31:17;;;;;;;4.82;3.50;;;;;;;2.50;65.55;94247.59;5066937;28;20024;-73
2023/11/18 08:33:43;;;;;;;9.45;7.82;;;;;;;2.46;65.89;94230.78;5066425;28;20024;-71
2023/11/18 08:36:08;;;;;;;6.45;4.47;;;;;;;2.61;65.52;94260.59;5067438;28;20043;-71
2023/11/18 08:38:35;;;;;;;4.50;3.33;;;;;;;2.59;64.54;94239.38;5070495;28;20039;-72
2023/11/18 08:41:00;;;;;;;2.20;1.55;;;;;;;2.46;64.66;94254.66;5069184;28;20521;-70
2023/11/18 08:43:28;;;;;;;3.40;2.40;;;;;;;2.54;64.95;94240.56;5068619;28;20032;-71
2023/11/18 08:45:56;;;;;;;4.32;3.40;;;;;;;2.61;63.60;94249.53;5100486;28;20040;-72
2023/11/18 08:48:22;;;;;;;3.97;2.97;;;;;;;2.63;64.22;94227.19;5070448;28;20486;-75
2023/11/18 08:50:48;;;;;;;6.68;4.05;;;;;;;2.80;65.41;94257.75;5068374;28;20517;-71
2023/11/18 08:53:17;;;;;;;5.07;3.70;;;;;;;2.80;64.77;94280.03;5070561;28;20032;-71
2023/11/18 08:55:50;;;;;;;6.53;4.85;;;;;;;2.84;64.62;94278.91;5068768;28;20490;-71
2023/11/18 08:58:18;;;;;;;6.45;4.95;;;;;;;2.50;65.63;94221.97;5066705;28;20037;-73
2023/11/18 09:01:04;;;;;;;9.05;7.85;;;;;;;2.84;65.72;94250.69;5052726;28;20032;-71
2023/11/18 09:03:36;;;;;;;5.78;4.28;;;;;;;2.81;65.64;94250.88;5040051;28;20125;-72
2023/11/18 09:06:06;;;;;;;4.28;3.03;;;;;;;2.68;64.90;94248.25;5070151;28;20512;-70
2023/11/18 09:08:38;;;;;;;4.43;4.00;;;;;;;2.74;65.85;94247.06;5052441;28;20043;-72
2023/11/18 09:11:07;;;;;;;5.38;3.05;;;;;;;2.56;64.46;94220.75;5052367;28;20508;-72
2023/11/18 09:13:34;;;;;;;2.90;2.30;;;;;;;2.79;64.16;94265.56;5069159;28;20547;-73
2023/11/18 09:16:03;;;;;;;5.50;2.70;;;;;;;2.80;64.30;94254.38;5070724;28;20029;-72
2023/11/18 09:18:33;;;;;;;5.70;4.35;;;;;;;2.70;64.09;94254.09;5052242;28;20125;-73
2023/11/18 09:21:00;;;;;;;4.63;2.83;;;;;;;2.45;63.86;94240.22;5052215;28;20478;-71
2023/11/18 09:23:27;;;;;;;5.15;1.92;;;;;;;2.59;63.22;94262.47;5068324;28;20037;-71
2023/11/18 09:25:53;;;;;;;3.55;2.47;;;;;;;2.61;63.92;94252.91;5050281;28;20025;-71
2023/11/18 09:28:24;;;;;;;15.38;13.82;;;;;;;2.58;64.38;94240.28;5083649;28;20544;-72
2023/11/18 09:30:49;;;;;;;6.72;5.82;;;;;;;2.82;64.68;94261.06;5067657;28;20056;-73
2023/11/18 09:33:34;;;;;;;7.80;4.50;;;;;;;2.82;64.51;94255.09;5082632;28;20067;-72
2023/11/18 09:36:11;;;;;;;6.80;6.00;;;;;;;2.69;63.63;94281.47;5070995;28;20422;-73
2023/11/18 09:38:40;;;;;;;3.10;2.53;;;;;;;2.64;63.96;94269.84;5066886;28;20487;-74
2023/11/18 09:41:12;;;;;;;4.43;3.40;;;;;;;2.64;64.12;94244.22;5084540;28;20108;-73
2023/11/18 09:43:45;;;;;;;6.15;4.68;;;;;;;2.69;63.91;94230.19;5053018;28;20116;-74
2023/11/18 09:46:14;;;;;;;4.90;3.45;;;;;;;2.75;63.12;94244.38;5036338;28;20434;-74
2023/11/18 09:48:52;;;;;;;6.10;3.97;;;;;;;2.69;64.71;94240.44;5050680;28;20486;-73
2023/11/18 09:51:23;;;;;;;9.63;5.32;;;;;;;2.61;63.95;94234.97;5065983;28;20086;-73
2023/11/18 09:53:52;;;;;;;9.43;6.80;;;;;;;2.40;63.38;94188.38;5079714;28;20056;-74
2023/11/18 09:56:38;;;;;;;5.15;3.33;;;;;;;2.67;62.82;94244.00;5067918;28;20050;-72
2023/11/18 09:59:19;;;;;;;4.47;3.55;;;;;;;2.79;63.34;94239.91;5069554;28;20025;-75
2023/11/18 10:01:44;;;;;;;;;;;;;;;2.77;62.55;94246.84;5055157;28;20036;-75
2023/11/18 10:04:10;;;;;;;7.38;5.00;;;;;;;2.73;62.21;94235.97;5072661;28;20435;-73
2023/11/18 10:06:36;;;;;;;4.75;3.10;;;;;;;2.66;63.07;94235.50;5055365;28;20066;-74
2023/11/18 10:09:15;;;;;;;7.75;4.72;;;;;;;2.64;63.25;94234.75;5069343;28;20032;-75
2023/11/18 10:11:47;;;;;;;5.32;3.10;;;;;;;2.82;63.60;94243.09;5070259;28;20024;-74
2023/11/18 10:14:15;;;;;;;3.83;2.17;;;;;;;2.85;62.94;94254.91;5085147;28;20032;-74
2023/11/18 10:16:41;;;;;;;7.35;6.53;;;;;;;2.75;62.58;94249.50;5072590;28;20116;-75
2023/11/18 10:19:08;;;;;;;4.18;3.25;;;;;;;2.63;62.33;94233.13;5068739;28;20245;-75
2023/11/18 10:21:39;;;;;;;3.92;2.72;;;;;;;2.71;62.57;94267.75;5069545;28;20032;-74
2023/11/18 10:24:11;;;;;;;5.57;3.40;;;;;;;2.69;62.67;94260.16;5068207;28;20029;-74
2023/11/18 10:26:38;;;;;;;5.15;4.18;;;;;;;2.72;62.13;94248.88;5087458;28;20048;-76
2023/11/18 10:29:07;;;;;;;4.30;3.05;;;;;;;2.68;61.89;94249.06;5073522;28;20029;-75
2023/11/18 10:31:35;;;;;;;5.40;4.03;;;;;;;2.65;62.32;94264.66;5054377;28;20110;-73
2023/11/18 10:34:00;;;;;;;4.05;2.45;;;;;;;2.73;62.72;94253.94;5105005;28;20112;-75
2023/11/18 10:36:26;;;;;;;3.17;2.40;;;;;;;2.64;61.40;94236.50;5088869;28;20529;-74
2023/11/18 10:38:55;;;;;;;5.72;3.13;;;;;;;2.59;61.72;94239.38;5072557;28;20040;-73
2023/11/18 10:41:20;;;;;;;3.60;2.97;;;;;;;2.71;62.34;94239.53;5055654;28;20252;-73
2023/11/18 10:43:47;;;;;;;3.35;2.40;;;;;;;2.60;61.07;94215.38;5055203;28;20031;-74
2023/11/18 10:46:14;;;;;;;4.68;2.88;;;;;;;2.82;61.33;94235.41;5072749;28;20028;-74
2023/11/18 10:48:49;;;;;;;3.50;2.70;;;;;;;2.68;61.11;94231.13;5068481;28;20114;-74
2023/11/18 10:51:16;;;;;;;3.45;2.50;;;;;;;2.72;61.49;94243.75;5067713;28;20036;-77
2023/11/18 10:53:52;;;;;;;4.15;3.25;;;;;;;2.47;61.69;94199.06;5065731;28;20041;-74
2023/11/18 10:56:20;;;;;;;6.97;3.47;;;;;;;2.83;61.40;94251.59;5042246;28;20032;-75
2023/11/18 10:58:46;;;;;;;5.95;3.08;;;;;;;2.69;60.82;94226.81;5044624;28;20157;-76
2023/11/18 11:01:12;;;;;;;3.90;2.47;;;;;;;2.76;61.42;94214.41;5054528;28;20040;-75
2023/11/18 11:03:56;;;;;;;7.10;4.00;;;;;;;2.80;61.30;94244.91;5036644;28;20477;-75
2023/11/18 11:06:23;;;;;;;3.42;2.30;;;;;;;2.85;61.47;94219.00;5081272;28;20037;-75
2023/11/18 11:08:50;;;;;;;3.55;2.67;;;;;;;2.81;60.40;94225.22;5064131;28;20127;-77
2023/11/18 11:11:21;;;;;;;5.25;3.10;;;;;;;2.70;61.00;94187.41;5059585;28;20453;-74
2023/11/18 11:13:50;;;;;;;5.45;3.53;;;;;;;2.87;62.43;94212.84;5062049;28;20052;-74
2023/11/18 11:16:19;;;;;;;2.45;1.90;;;;;;;2.97;60.92;94217.41;5053259;28;20025;-76
2023/11/18 11:18:47;;;;;;;11.18;3.92;;;;;;;2.94;61.70;94202.19;5054382;28;20093;-74
2023/11/18 11:21:19;;;;;;;3.88;2.35;;;;;;;2.88;60.92;94218.81;5037528;28;20040;-74
2023/11/18 11:24:04;;;;;;;4.75;2.90;;;;;;;2.94;60.78;94226.09;5054639;28;20586;-73
2023/11/18 11:26:42;;;;;;;5.13;3.97;;;;;;;2.94;61.05;94223.53;5039139;28;20028;-73
2023/11/18 11:29:47;;;;;;;8.75;6.13;;;;;;;3.01;60.56;94209.41;5070923;28;20029;-75
2023/11/18 11:32:30;;;;;;;2.55;1.75;;;;;;;2.99;60.63;94220.69;4997612;28;20551;-76
2023/11/18 11:35:07;;;;;;;3.67;2.28;;;;;;;2.98;60.81;94203.63;5037117;28;20040;-74
2023/11/18 11:37:34;;;;;;;4.03;3.15;;;;;;;2.88;61.33;94205.97;5102922;28;20047;-73
2023/11/18 11:40:04;;;;;;;4.30;2.85;;;;;;;2.90;60.48;94232.38;5070449;28;20035;-73
2023/11/18 11:42:29;;;;;;;3.22;2.58;;;;;;;2.92;60.65;94209.97;5048666;28;20111;-76
2023/11/18 11:44:55;;;;;;;3.30;1.88;;;;;;;2.74;60.95;94216.28;5045421;28;20073;-77